Time;durP1;ratioP1;P1;durP2;ratioP2;P2;SDS_P1;SDS_P2;PMS_P1;PMS_P2;Temp;Humidity;BMP_temperature;BMP_pressure;BME280_temperature;BME280_humidity;BME280_pressure;Samples;Min_cycle;Max_cycle;Signal;HPM_P1;HPM_P2
2022/08/26 00:01:54;;;;;;;19.60;16.05;;;;;;;;;;5091516;28;20024;-77
2022/08/26 00:04:20;;;;;;;17.10;15.07;;;;;;;;;;5091441;28;20455;-78
2022/08/26 00:06:46;;;;;;;17.80;15.90;;;;;;;;;;5092446;28;20105;-77
2022/08/26 00:09:13;;;;;;;17.45;15.68;;;;;;;;;;5091390;28;20481;-78
2022/08/26 00:11:39;;;;;;;16.67;14.95;;;;;;;;;;5090942;28;20090;-78
2022/08/26 00:14:05;;;;;;;16.40;14.70;;;;;;;;;;5091022;28;20462;-77
2022/08/26 00:16:31;;;;;;;17.90;15.77;;;;;;;;;;5090961;28;20028;-80
2022/08/26 00:18:57;;;;;;;15.90;14.30;;;;;;;;;;5090903;28;20036;-77
2022/08/26 00:21:23;;;;;;;17.00;14.85;;;;;;;;;;5092114;28;20462;-78
2022/08/26 00:23:49;;;;;;;17.55;14.73;;;;;;;;;;5091068;28;20468;-78
2022/08/26 00:26:15;;;;;;;17.25;13.70;;;;;;;;;;5092196;28;20040;-77
2022/08/26 00:28:41;;;;;;;17.58;13.90;;;;;;;;;;5088725;28;20020;-77
2022/08/26 00:31:07;;;;;;;16.50;12.48;;;;;;;;;;5092129;28;20055;-77
2022/08/26 00:33:33;;;;;;;14.15;11.50;;;;;;;;;;5091539;28;20081;-77
2022/08/26 00:36:00;;;;;;;13.55;11.88;;;;;;;;;;5082869;28;20051;-78
2022/08/26 00:38:26;;;;;;;13.00;10.32;;;;;;;;;;5091827;28;20036;-78
2022/08/26 00:40:54;;;;;;;12.82;10.10;;;;;;;;;;5090558;28;20050;-77
2022/08/26 00:43:20;;;;;;;13.20;9.82;;;;;;;;;;5092384;28;20024;-78
2022/08/26 00:46:03;;;;;;;14.45;9.63;;;;;;;;;;5074806;28;20051;-76
2022/08/26 00:48:31;;;;;;;12.32;9.80;;;;;;;;;;5070028;28;20386;-78
2022/08/26 00:51:03;;;;;;;10.05;8.98;;;;;;;;;;5069927;28;20025;-77
2022/08/26 00:53:31;;;;;;;12.18;8.35;;;;;;;;;;5069886;28;20064;-80
2022/08/26 00:56:01;;;;;;;10.43;8.75;;;;;;;;;;5069925;28;20028;-78
2022/08/26 00:58:28;;;;;;;11.95;9.38;;;;;;;;;;5071312;28;20084;-78
2022/08/26 01:00:54;;;;;;;11.57;9.20;;;;;;;;;;5088365;28;20027;-78
2022/08/26 01:03:22;;;;;;;15.40;10.85;;;;;;;;;;5089404;28;20024;-77
2022/08/26 01:05:49;;;;;;;12.85;10.55;;;;;;;;;;5081901;28;20025;-79
2022/08/26 01:08:15;;;;;;;15.07;10.55;;;;;;;;;;5071023;28;20024;-78
2022/08/26 01:10:42;;;;;;;15.30;10.23;;;;;;;;;;5070273;28;20025;-78
2022/08/26 01:13:09;;;;;;;12.63;9.98;;;;;;;;;;5071398;28;20138;-76
2022/08/26 01:15:37;;;;;;;14.25;10.57;;;;;;;;;;5085287;28;20127;-78
2022/08/26 01:18:04;;;;;;;13.18;11.65;;;;;;;;;;5089715;28;20039;-77
2022/08/26 01:20:30;;;;;;;14.02;11.40;;;;;;;;;;5089369;28;20375;-77
2022/08/26 01:23:01;;;;;;;14.90;12.15;;;;;;;;;;5090379;28;20080;-78
2022/08/26 01:25:28;;;;;;;14.75;11.57;;;;;;;;;;5086257;28;20024;-77
2022/08/26 01:27:56;;;;;;;12.82;11.02;;;;;;;;;;5089454;28;20044;-77
2022/08/26 01:30:23;;;;;;;16.05;11.70;;;;;;;;;;5089208;28;20020;-78
2022/08/26 01:32:49;;;;;;;14.77;12.15;;;;;;;;;;5089624;28;20428;-77
2022/08/26 01:35:16;;;;;;;14.68;11.95;;;;;;;;;;5089598;28;20026;-78
2022/08/26 01:37:41;;;;;;;18.23;11.82;;;;;;;;;;5089525;28;20040;-78
2022/08/26 01:40:10;;;;;;;13.38;11.13;;;;;;;;;;5089282;28;20097;-78
2022/08/26 01:42:36;;;;;;;14.27;11.93;;;;;;;;;;5089561;28;20485;-78
2022/08/26 01:45:09;;;;;;;13.40;10.90;;;;;;;;;;5089243;28;20043;-79
2022/08/26 01:47:36;;;;;;;15.02;10.43;;;;;;;;;;5090466;28;20016;-77
2022/08/26 01:50:04;;;;;;;11.98;9.55;;;;;;;;;;5089418;28;20500;-77
2022/08/26 01:52:31;;;;;;;13.13;10.05;;;;;;;;;;5089442;28;20038;-79
2022/08/26 01:54:58;;;;;;;12.93;10.57;;;;;;;;;;5085971;28;20474;-78
2022/08/26 01:57:25;;;;;;;12.90;10.88;;;;;;;;;;5088844;28;20402;-78
2022/08/26 01:59:52;;;;;;;12.38;10.10;;;;;;;;;;5090333;28;20027;-77
2022/08/26 02:02:18;;;;;;;11.43;8.70;;;;;;;;;;5090035;28;20115;-78
2022/08/26 02:04:51;;;;;;;11.88;9.52;;;;;;;;;;5093130;28;20535;-78
2022/08/26 02:07:18;;;;;;;13.10;8.85;;;;;;;;;;5093120;28;20051;-76
2022/08/26 02:09:44;;;;;;;11.73;8.68;;;;;;;;;;5092067;28;20026;-78
2022/08/26 02:12:11;;;;;;;10.82;7.90;;;;;;;;;;5094004;28;20024;-78
2022/08/26 02:14:40;;;;;;;10.63;8.07;;;;;;;;;;5092839;28;20122;-78
2022/08/26 02:17:07;;;;;;;10.95;8.70;;;;;;;;;;5093139;28;20016;-81
2022/08/26 02:19:35;;;;;;;11.60;8.52;;;;;;;;;;5094308;28;20035;-77
2022/08/26 02:22:04;;;;;;;11.45;7.75;;;;;;;;;;5094676;28;20028;-77
2022/08/26 02:24:45;;;;;;;11.60;8.15;;;;;;;;;;5091938;28;20024;-77
2022/08/26 02:27:12;;;;;;;8.40;7.47;;;;;;;;;;5089862;28;20410;-77
2022/08/26 02:29:41;;;;;;;11.13;7.60;;;;;;;;;;5072104;28;20086;-77
2022/08/26 02:32:08;;;;;;;10.00;7.10;;;;;;;;;;5071807;28;20478;-79
2022/08/26 02:34:34;;;;;;;12.35;6.97;;;;;;;;;;5071690;28;20495;-77
2022/08/26 02:37:02;;;;;;;10.07;7.60;;;;;;;;;;5074060;28;20024;-77
2022/08/26 02:39:29;;;;;;;10.40;6.82;;;;;;;;;;5073673;28;20067;-78
2022/08/26 02:41:56;;;;;;;7.70;6.40;;;;;;;;;;5090995;28;20035;-78
2022/08/26 02:44:22;;;;;;;10.60;6.82;;;;;;;;;;5092783;28;20052;-77
2022/08/26 02:46:48;;;;;;;9.60;6.38;;;;;;;;;;5093815;28;20462;-78
2022/08/26 02:49:15;;;;;;;9.63;6.25;;;;;;;;;;5092701;28;20435;-77
2022/08/26 02:51:41;;;;;;;6.78;6.05;;;;;;;;;;5083128;28;20035;-77
2022/08/26 02:54:07;;;;;;;8.52;6.10;;;;;;;;;;5076684;28;20025;-79
2022/08/26 02:56:33;;;;;;;7.68;5.55;;;;;;;;;;5077802;28;20031;-77
2022/08/26 02:58:59;;;;;;;9.10;6.10;;;;;;;;;;5075783;28;20028;-77
2022/08/26 03:01:31;;;;;;;10.15;6.40;;;;;;;;;;5079029;28;20073;-78
2022/08/26 03:03:57;;;;;;;9.98;6.70;;;;;;;;;;5081516;28;20013;-78
2022/08/26 03:06:24;;;;;;;9.18;6.60;;;;;;;;;;5079549;28;20025;-77
2022/08/26 03:08:50;;;;;;;6.93;5.75;;;;;;;;;;5079149;28;20591;-79
2022/08/26 03:11:19;;;;;;;9.50;6.43;;;;;;;;;;5080740;28;20024;-78
2022/08/26 03:13:45;;;;;;;7.70;6.22;;;;;;;;;;5077785;28;20422;-79
2022/08/26 03:16:12;;;;;;;6.75;6.05;;;;;;;;;;5077510;28;20386;-77
2022/08/26 03:18:38;;;;;;;10.82;6.53;;;;;;;;;;5071526;28;20099;-77
2022/08/26 03:21:09;;;;;;;9.75;6.85;;;;;;;;;;5079679;28;20107;-78
2022/08/26 03:23:36;;;;;;;7.70;6.25;;;;;;;;;;5092441;28;20028;-77
2022/08/26 03:26:02;;;;;;;10.32;6.53;;;;;;;;;;5090833;28;20028;-77
2022/08/26 03:28:29;;;;;;;10.23;6.70;;;;;;;;;;5092944;28;20509;-78
2022/08/26 03:30:55;;;;;;;8.15;5.43;;;;;;;;;;5092035;28;20016;-80
2022/08/26 03:33:21;;;;;;;9.10;6.00;;;;;;;;;;5092072;28;20028;-77
2022/08/26 03:35:47;;;;;;;7.72;5.93;;;;;;;;;;5088903;28;20043;-78
2022/08/26 03:38:14;;;;;;;7.85;6.07;;;;;;;;;;5091930;28;20036;-78
2022/08/26 03:40:41;;;;;;;8.13;5.70;;;;;;;;;;5092306;28;20028;-77
2022/08/26 03:43:07;;;;;;;9.05;6.00;;;;;;;;;;5092675;28;20020;-78
2022/08/26 03:45:33;;;;;;;7.35;5.65;;;;;;;;;;5091585;28;20030;-77
2022/08/26 03:48:00;;;;;;;9.00;5.57;;;;;;;;;;5091660;28;20448;-77
2022/08/26 03:50:26;;;;;;;7.82;5.85;;;;;;;;;;5089934;28;20012;-80
2022/08/26 03:52:53;;;;;;;6.90;5.15;;;;;;;;;;5092884;28;20061;-78
2022/08/26 03:55:19;;;;;;;7.72;5.60;;;;;;;;;;5090607;28;20020;-78
2022/08/26 03:57:46;;;;;;;6.35;5.65;;;;;;;;;;5090609;28;20032;-78
2022/08/26 04:00:14;;;;;;;8.00;5.65;;;;;;;;;;5092059;28;20032;-78
2022/08/26 04:02:42;;;;;;;7.82;5.82;;;;;;;;;;5091429;28;20386;-78
2022/08/26 04:05:08;;;;;;;7.43;6.00;;;;;;;;;;5089934;28;20028;-78
2022/08/26 04:07:35;;;;;;;7.70;5.53;;;;;;;;;;5090327;28;20020;-78
2022/08/26 04:10:01;;;;;;;7.47;5.72;;;;;;;;;;5090735;28;20395;-77
2022/08/26 04:12:28;;;;;;;9.07;5.30;;;;;;;;;;5090359;28;20020;-78
2022/08/26 04:14:54;;;;;;;6.90;6.18;;;;;;;;;;5092047;28;20034;-77
2022/08/26 04:17:20;;;;;;;7.05;5.72;;;;;;;;;;5088366;28;20106;-76
2022/08/26 04:19:46;;;;;;;8.82;5.40;;;;;;;;;;5091076;28;20042;-76
2022/08/26 04:22:12;;;;;;;7.65;5.30;;;;;;;;;;5092035;28;20024;-77
2022/08/26 04:24:38;;;;;;;9.50;5.82;;;;;;;;;;5090739;28;20050;-77
2022/08/26 04:27:05;;;;;;;8.85;5.75;;;;;;;;;;5082715;28;20048;-77
2022/08/26 04:29:31;;;;;;;8.20;6.45;;;;;;;;;;5085182;28;20024;-76
2022/08/26 04:31:58;;;;;;;9.65;7.20;;;;;;;;;;5091857;28;20016;-78
2022/08/26 04:34:25;;;;;;;10.43;7.00;;;;;;;;;;5090424;28;20489;-77
2022/08/26 04:36:51;;;;;;;6.55;5.55;;;;;;;;;;5090478;28;20374;-78
2022/08/26 04:39:19;;;;;;;9.23;6.03;;;;;;;;;;5080802;28;20483;-78
2022/08/26 04:41:45;;;;;;;7.78;5.78;;;;;;;;;;5087766;28;20024;-77
2022/08/26 04:44:11;;;;;;;8.88;5.90;;;;;;;;;;5091713;28;20028;-76
2022/08/26 04:46:37;;;;;;;11.55;6.75;;;;;;;;;;5088093;28;20027;-77
2022/08/26 04:49:05;;;;;;;7.40;5.63;;;;;;;;;;5090662;28;20107;-79
2022/08/26 04:51:32;;;;;;;6.45;5.03;;;;;;;;;;5091175;28;20385;-78
2022/08/26 04:53:58;;;;;;;9.52;5.85;;;;;;;;;;5091339;28;20222;-77
2022/08/26 04:56:25;;;;;;;7.60;5.93;;;;;;;;;;5090605;28;20028;-78
2022/08/26 04:58:51;;;;;;;8.30;5.50;;;;;;;;;;5089694;28;20237;-79
2022/08/26 05:01:17;;;;;;;6.93;5.45;;;;;;;;;;5088065;28;20216;-77
2022/08/26 05:03:43;;;;;;;9.00;6.10;;;;;;;;;;5073377;28;20439;-77
2022/08/26 05:06:10;;;;;;;6.55;5.82;;;;;;;;;;5078983;28;20024;-77
2022/08/26 05:08:36;;;;;;;9.48;5.88;;;;;;;;;;5079577;28;20074;-84
2022/08/26 05:11:03;;;;;;;7.25;5.75;;;;;;;;;;5076429;28;20019;-78
2022/08/26 05:13:29;;;;;;;7.57;5.68;;;;;;;;;;5086110;28;20054;-77
2022/08/26 05:15:55;;;;;;;8.45;5.95;;;;;;;;;;5077835;28;20035;-77
2022/08/26 05:18:24;;;;;;;8.13;5.97;;;;;;;;;;5078151;28;20043;-78
2022/08/26 05:20:52;;;;;;;6.15;5.40;;;;;;;;;;5074494;28;20468;-77
2022/08/26 05:23:21;;;;;;;7.43;5.22;;;;;;;;;;5077717;28;20031;-80
2022/08/26 05:25:47;;;;;;;6.20;5.20;;;;;;;;;;5083547;28;20013;-79
2022/08/26 05:28:15;;;;;;;6.90;5.03;;;;;;;;;;5082274;28;20481;-78
2022/08/26 05:30:42;;;;;;;7.68;5.72;;;;;;;;;;5080489;28;20028;-77
2022/08/26 05:33:08;;;;;;;7.22;5.50;;;;;;;;;;5086030;28;20028;-78
2022/08/26 05:35:37;;;;;;;7.15;5.30;;;;;;;;;;5076369;28;20016;-81
2022/08/26 05:38:04;;;;;;;5.18;4.68;;;;;;;;;;5075720;28;20537;-80
2022/08/26 05:40:33;;;;;;;7.15;5.32;;;;;;;;;;5084235;28;20020;-79
2022/08/26 05:42:59;;;;;;;6.65;4.93;;;;;;;;;;5085594;28;20094;-78
2022/08/26 05:45:25;;;;;;;7.03;4.65;;;;;;;;;;5088880;28;20016;-84
2022/08/26 05:47:51;;;;;;;6.22;4.55;;;;;;;;;;5090765;28;20024;-79
2022/08/26 05:50:20;;;;;;;7.45;5.00;;;;;;;;;;5084843;28;20032;-85
2022/08/26 05:52:47;;;;;;;6.57;4.13;;;;;;;;;;5082890;28;20047;-81
2022/08/26 05:55:13;;;;;;;5.32;4.22;;;;;;;;;;5089638;28;20109;-79
2022/08/26 05:57:39;;;;;;;5.97;4.63;;;;;;;;;;5086171;28;20468;-85
2022/08/26 06:00:05;;;;;;;6.13;4.20;;;;;;;;;;5084652;28;20028;-79
2022/08/26 06:02:31;;;;;;;5.57;4.25;;;;;;;;;;5080217;28;20035;-80
2022/08/26 06:04:57;;;;;;;5.90;3.97;;;;;;;;;;5082215;28;20442;-81
2022/08/26 06:08:10;;;;;;;4.53;3.38;;;;;;;;;;5079097;28;20160;-79
2022/08/26 06:10:12;;;;;;;5.13;3.70;;;;;;;;;;5086308;28;20482;-82
2022/08/26 06:12:38;;;;;;;6.55;3.50;;;;;;;;;;5081376;28;20028;-79
2022/08/26 06:15:04;;;;;;;5.80;3.40;;;;;;;;;;5070790;28;20027;-80
2022/08/26 06:17:30;;;;;;;5.22;3.50;;;;;;;;;;5072630;28;20100;-80
2022/08/26 06:19:57;;;;;;;4.93;3.65;;;;;;;;;;5076029;28;20028;-77
2022/08/26 06:27:52;;;;;;;24.30;4.80;;;;;;;;;;5080582;28;20400;-77
2022/08/26 06:30:18;;;;;;;10.20;3.05;;;;;;;;;;5088970;28;20119;-77
2022/08/26 06:32:44;;;;;;;6.70;3.00;;;;;;;;;;5088142;28;20394;-77
2022/08/26 06:35:11;;;;;;;6.20;2.92;;;;;;;;;;5086925;28;20028;-77
2022/08/26 06:37:37;;;;;;;5.43;3.08;;;;;;;;;;5088772;28;20119;-78
2022/08/26 06:40:03;;;;;;;7.00;2.97;;;;;;;;;;5084973;28;20044;-77
2022/08/26 06:42:29;;;;;;;5.43;3.13;;;;;;;;;;5086355;28;20102;-81
2022/08/26 06:44:55;;;;;;;7.40;2.90;;;;;;;;;;5088567;28;20042;-77
2022/08/26 06:47:21;;;;;;;4.32;2.70;;;;;;;;;;5088986;28;20028;-77
2022/08/26 06:49:47;;;;;;;5.43;2.60;;;;;;;;;;5090248;28;20027;-77
2022/08/26 06:52:13;;;;;;;7.07;2.50;;;;;;;;;;5092027;28;20031;-78
2022/08/26 06:54:42;;;;;;;5.40;2.33;;;;;;;;;;5092442;28;20020;-77
2022/08/26 06:57:08;;;;;;;5.35;2.70;;;;;;;;;;5081491;28;20040;-77
2022/08/26 06:59:34;;;;;;;6.32;2.90;;;;;;;;;;5091862;28;20051;-79
2022/08/26 07:02:01;;;;;;;4.85;2.00;;;;;;;;;;5093658;28;20443;-77
2022/08/26 07:04:27;;;;;;;4.30;2.25;;;;;;;;;;5077790;28;20016;-77
2022/08/26 07:06:53;;;;;;;5.53;2.20;;;;;;;;;;5093289;28;20073;-79
2022/08/26 07:09:20;;;;;;;7.85;2.58;;;;;;;;;;5093216;28;20103;-78
2022/08/26 07:11:46;;;;;;;5.38;2.60;;;;;;;;;;5086783;28;20015;-80
2022/08/26 07:14:12;;;;;;;6.15;2.20;;;;;;;;;;5089714;28;20167;-78
2022/08/26 07:16:40;;;;;;;4.57;2.10;;;;;;;;;;5092766;28;20465;-81
2022/08/26 07:19:06;;;;;;;5.38;2.05;;;;;;;;;;5093256;28;20536;-77
2022/08/26 07:21:32;;;;;;;2.95;2.00;;;;;;;;;;5092123;28;20024;-81
2022/08/26 07:23:58;;;;;;;3.70;2.08;;;;;;;;;;5091819;28;20119;-77
2022/08/26 07:26:26;;;;;;;3.08;1.80;;;;;;;;;;5091670;28;20044;-78
2022/08/26 07:28:53;;;;;;;5.77;2.03;;;;;;;;;;5091829;28;20376;-77
2022/08/26 07:31:20;;;;;;;3.42;2.03;;;;;;;;;;5091816;28;20031;-79
2022/08/26 07:33:46;;;;;;;5.18;2.17;;;;;;;;;;5093629;28;20362;-77
2022/08/26 07:36:13;;;;;;;4.75;2.10;;;;;;;;;;5091418;28;20027;-77
2022/08/26 07:38:40;;;;;;;3.85;2.05;;;;;;;;;;5091433;28;20036;-77
2022/08/26 07:41:07;;;;;;;2.85;1.85;;;;;;;;;;5092709;28;20028;-80
2022/08/26 07:43:34;;;;;;;4.13;2.10;;;;;;;;;;5091471;28;20223;-78
2022/08/26 07:46:00;;;;;;;3.13;1.92;;;;;;;;;;5091607;28;20107;-77
2022/08/26 07:48:26;;;;;;;4.65;1.92;;;;;;;;;;5091294;28;20566;-78
2022/08/26 07:50:52;;;;;;;2.63;1.90;;;;;;;;;;5080973;28;20032;-81
2022/08/26 07:53:18;;;;;;;2.95;1.73;;;;;;;;;;5085592;28;20036;-79
2022/08/26 07:55:44;;;;;;;4.95;2.17;;;;;;;;;;5081371;28;20028;-80
2022/08/26 07:58:10;;;;;;;4.05;1.80;;;;;;;;;;5090803;28;20046;-81
2022/08/26 08:00:36;;;;;;;4.85;1.83;;;;;;;;;;5071137;28;20020;-78
2022/08/26 08:03:04;;;;;;;3.25;1.90;;;;;;;;;;5071363;28;20139;-80
2022/08/26 08:05:31;;;;;;;4.77;2.03;;;;;;;;;;5089147;28;20069;-80
2022/08/26 08:07:57;;;;;;;5.35;2.03;;;;;;;;;;5082172;28;20118;-81
2022/08/26 08:10:24;;;;;;;2.70;1.90;;;;;;;;;;5074509;28;20024;-80
2022/08/26 08:12:51;;;;;;;4.25;2.30;;;;;;;;;;5078947;28;20044;-83
2022/08/26 08:15:18;;;;;;;3.30;1.83;;;;;;;;;;5086294;28;20115;-80
2022/08/26 08:17:45;;;;;;;2.92;1.90;;;;;;;;;;5091298;28;20085;-79
2022/08/26 08:20:12;;;;;;;4.85;2.17;;;;;;;;;;5092312;28;20461;-79
2022/08/26 08:22:38;;;;;;;3.30;1.98;;;;;;;;;;5078276;28;20082;-81
2022/08/26 08:25:04;;;;;;;3.95;2.00;;;;;;;;;;5092381;28;20470;-78
2022/08/26 08:27:34;;;;;;;4.05;1.88;;;;;;;;;;5087439;28;20510;-78
2022/08/26 08:30:00;;;;;;;3.75;1.67;;;;;;;;;;5081064;28;20028;-80
2022/08/26 08:32:28;;;;;;;3.35;2.25;;;;;;;;;;5090077;28;20024;-81
2022/08/26 08:34:54;;;;;;;4.87;2.40;;;;;;;;;;5090893;28;20039;-79
2022/08/26 08:37:20;;;;;;;4.30;2.10;;;;;;;;;;5091502;28;20751;-79
2022/08/26 08:39:46;;;;;;;4.60;1.90;;;;;;;;;;5090746;28;20139;-78
2022/08/26 08:42:26;;;;;;;4.13;2.00;;;;;;;;;;5090833;28;20024;-78
2022/08/26 08:44:55;;;;;;;6.57;1.80;;;;;;;;;;5091589;28;20102;-78
2022/08/26 08:47:21;;;;;;;;;;;;;;;;;;5085188;28;20462;-78
2022/08/26 08:49:47;;;;;;;5.57;2.10;;;;;;;;;;5081268;28;19916;-78
2022/08/26 08:52:28;;;;;;;4.13;2.03;;;;;;;;;;5079682;28;20044;-79
2022/08/26 08:54:55;;;;;;;3.95;2.10;;;;;;;;;;5069916;28;20020;-78
2022/08/26 08:57:24;;;;;;;4.45;1.80;;;;;;;;;;5078392;28;20062;-78
2022/08/26 08:59:55;;;;;;;3.13;1.65;;;;;;;;;;5078663;28;20440;-79
2022/08/26 09:02:29;;;;;;;4.22;1.90;;;;;;;;;;5078984;28;20111;-79
2022/08/26 09:05:19;;;;;;;4.18;1.90;;;;;;;;;;5074830;28;20050;-78
2022/08/26 09:07:48;;;;;;;5.10;1.80;;;;;;;;;;5074335;28;20419;-80
2022/08/26 09:10:17;;;;;;;3.35;1.63;;;;;;;;;;5073555;28;20465;-78
2022/08/26 09:12:43;;;;;;;2.60;1.58;;;;;;;;;;5078540;28;20020;-79
2022/08/26 09:15:21;;;;;;;4.05;1.90;;;;;;;;;;5075723;28;20107;-78
2022/08/26 09:17:53;;;;;;;4.63;2.00;;;;;;;;;;5075550;28;20486;-79
2022/08/26 09:20:39;;;;;;;5.75;1.77;;;;;;;;;;5073914;28;20105;-80
2022/08/26 09:23:05;;;;;;;5.10;2.08;;;;;;;;;;5076955;28;20117;-78
2022/08/26 09:25:31;;;;;;;2.95;1.80;;;;;;;;;;5075248;28;20029;-78
2022/08/26 09:27:57;;;;;;;5.00;1.88;;;;;;;;;;5070749;28;20049;-78
2022/08/26 09:30:25;;;;;;;6.72;2.33;;;;;;;;;;5070438;28;20106;-75
2022/08/26 09:33:00;;;;;;;4.97;2.20;;;;;;;;;;5077284;28;20031;-77
2022/08/26 09:35:26;;;;;;;3.72;2.08;;;;;;;;;;5096248;28;20032;-75
2022/08/26 09:37:53;;;;;;;4.80;2.10;;;;;;;;;;5071254;28;20486;-71
2022/08/26 09:40:25;;;;;;;2.28;2.08;;;;;;;;;;5070169;28;20029;-76
2022/08/26 09:43:10;;;;;;;7.65;2.53;;;;;;;;;;5069668;28;20009;-82
2022/08/26 09:45:37;;;;;;;6.45;2.10;;;;;;;;;;5074438;28;20024;-77
2022/08/26 09:48:03;;;;;;;6.25;2.00;;;;;;;;;;5075054;28;20020;-77
2022/08/26 09:50:31;;;;;;;7.13;2.00;;;;;;;;;;5085918;28;20036;-76
2022/08/26 09:53:24;;;;;;;3.70;1.98;;;;;;;;;;5078725;28;20028;-74
2022/08/26 09:55:51;;;;;;;5.63;1.95;;;;;;;;;;5086397;28;20082;-76
2022/08/26 09:58:36;;;;;;;4.35;1.90;;;;;;;;;;5088978;28;20097;-74
2022/08/26 10:01:04;;;;;;;4.18;1.63;;;;;;;;;;5087807;28;20111;-75
2022/08/26 10:03:32;;;;;;;4.60;1.92;;;;;;;;;;5088873;28;20572;-76
2022/08/26 10:06:00;;;;;;;3.70;1.75;;;;;;;;;;5090136;28;20020;-75
2022/08/26 10:08:35;;;;;;;2.58;1.77;;;;;;;;;;5088914;28;20043;-75
2022/08/26 10:11:03;;;;;;;2.63;1.50;;;;;;;;;;5088405;28;20173;-75
2022/08/26 10:13:41;;;;;;;3.63;1.70;;;;;;;;;;5088948;28;20021;-76
2022/08/26 10:16:28;;;;;;;3.28;1.45;;;;;;;;;;5089051;28;20342;-76
2022/08/26 10:19:09;;;;;;;3.00;1.60;;;;;;;;;;5088931;28;20044;-75
2022/08/26 10:21:38;;;;;;;5.82;1.65;;;;;;;;;;5088491;28;20020;-75
2022/08/26 10:24:06;;;;;;;3.78;1.55;;;;;;;;;;5089286;28;20028;-75
2022/08/26 10:26:43;;;;;;;3.80;1.50;;;;;;;;;;5092566;28;20399;-76
2022/08/26 10:29:13;;;;;;;3.65;1.80;;;;;;;;;;5093957;28;20035;-75
2022/08/26 10:31:42;;;;;;;3.30;1.50;;;;;;;;;;5093168;28;20363;-76
2022/08/26 10:34:08;;;;;;;2.63;1.50;;;;;;;;;;5091113;28;20089;-76
2022/08/26 10:36:55;;;;;;;3.83;1.60;;;;;;;;;;5094485;28;20028;-75
2022/08/26 10:39:39;;;;;;;1.63;1.25;;;;;;;;;;5092815;28;20046;-75
2022/08/26 10:42:13;;;;;;;6.28;1.40;;;;;;;;;;5093825;28;20077;-75
2022/08/26 10:44:40;;;;;;;3.00;1.60;;;;;;;;;;5093481;28;20031;-76
2022/08/26 10:47:14;;;;;;;4.18;1.45;;;;;;;;;;5094028;28;20247;-76
2022/08/26 10:49:41;;;;;;;3.08;1.40;;;;;;;;;;5090839;28;20035;-77
2022/08/26 10:52:13;;;;;;;3.97;1.45;;;;;;;;;;5093472;28;20027;-76
2022/08/26 10:54:47;;;;;;;3.53;1.42;;;;;;;;;;5091767;28;20202;-75
2022/08/26 10:57:26;;;;;;;5.28;1.42;;;;;;;;;;5092585;28;20359;-77
2022/08/26 10:59:55;;;;;;;4.63;1.55;;;;;;;;;;5092697;28;20500;-75
2022/08/26 11:02:21;;;;;;;4.25;1.30;;;;;;;;;;5093110;28;20478;-76
2022/08/26 11:04:47;;;;;;;5.25;1.70;;;;;;;;;;5080435;28;20025;-78
2022/08/26 11:07:31;;;;;;;4.57;1.67;;;;;;;;;;5072692;28;20054;-77
2022/08/26 11:09:58;;;;;;;5.70;1.73;;;;;;;;;;5078818;28;20466;-76
2022/08/26 11:12:33;;;;;;;3.47;1.50;;;;;;;;;;5077582;28;20451;-77
2022/08/26 11:14:59;;;;;;;4.78;1.65;;;;;;;;;;5079087;28;20035;-77
2022/08/26 11:17:43;;;;;;;4.75;2.20;;;;;;;;;;5077176;28;20113;-85
2022/08/26 11:20:11;;;;;;;2.78;1.45;;;;;;;;;;5077633;28;20032;-77
2022/08/26 11:22:38;;;;;;;3.47;1.70;;;;;;;;;;5075593;28;20009;-75
2022/08/26 11:25:05;;;;;;;4.75;1.45;;;;;;;;;;5083538;28;20266;-76
2022/08/26 11:27:34;;;;;;;3.03;1.27;;;;;;;;;;5078137;28;20046;-75
2022/08/26 11:30:06;;;;;;;5.30;1.42;;;;;;;;;;5074757;28;20051;-78
2022/08/26 11:32:38;;;;;;;3.13;1.33;;;;;;;;;;5075475;28;20021;-78
2022/08/26 11:35:06;;;;;;;2.85;1.10;;;;;;;;;;5075943;28;20024;-77
2022/08/26 11:37:40;;;;;;;3.50;1.70;;;;;;;;;;5077967;28;20035;-77
2022/08/26 11:40:12;;;;;;;2.63;1.20;;;;;;;;;;5083197;28;20054;-78
2022/08/26 11:42:43;;;;;;;3.33;1.70;;;;;;;;;;5079441;28;20036;-76
2022/08/26 11:45:13;;;;;;;2.50;1.40;;;;;;;;;;5077940;28;20052;-77
2022/08/26 11:47:39;;;;;;;3.47;1.27;;;;;;;;;;5077923;28;20056;-78
2022/08/26 11:50:05;;;;;;;3.10;1.40;;;;;;;;;;5074740;28;20047;-76
2022/08/26 11:52:31;;;;;;;4.60;1.45;;;;;;;;;;5077235;28;20474;-80
2022/08/26 11:55:09;;;;;;;2.90;1.50;;;;;;;;;;5076471;28;20125;-79
2022/08/26 11:57:40;;;;;;;3.92;1.35;;;;;;;;;;5075740;28;20474;-77
2022/08/26 12:00:10;;;;;;;2.80;1.27;;;;;;;;;;5079309;28;20031;-78
2022/08/26 12:02:36;;;;;;;3.47;1.27;;;;;;;;;;5074649;28;20052;-77
2022/08/26 12:05:02;;;;;;;3.58;1.40;;;;;;;;;;5075896;28;20525;-76
2022/08/26 12:07:28;;;;;;;6.70;1.15;;;;;;;;;;5073731;28;20081;-77
2022/08/26 12:09:59;;;;;;;3.50;1.08;;;;;;;;;;5077967;28;20247;-77
2022/08/26 12:12:29;;;;;;;4.72;1.38;;;;;;;;;;5079762;28;20074;-77
2022/08/26 12:15:10;;;;;;;2.45;1.13;;;;;;;;;;5079091;28;20538;-79
2022/08/26 12:17:38;;;;;;;2.60;1.30;;;;;;;;;;5081065;28;20157;-79
2022/08/26 12:20:05;;;;;;;4.50;1.35;;;;;;;;;;5072707;28;20035;-80
2022/08/26 12:22:34;;;;;;;3.30;1.20;;;;;;;;;;5083770;28;20477;-77
2022/08/26 12:25:04;;;;;;;4.03;1.25;;;;;;;;;;5089204;28;20105;-77
2022/08/26 12:27:35;;;;;;;2.53;1.10;;;;;;;;;;5069526;28;20076;-77
2022/08/26 12:30:07;;;;;;;2.95;1.10;;;;;;;;;;5070354;28;20278;-77
2022/08/26 12:32:34;;;;;;;3.78;1.30;;;;;;;;;;5075306;28;20050;-78
2022/08/26 12:35:01;;;;;;;2.05;1.35;;;;;;;;;;5090185;28;20040;-77
2022/08/26 12:37:29;;;;;;;4.30;1.35;;;;;;;;;;5089877;28;20020;-78
2022/08/26 12:39:55;;;;;;;4.28;1.50;;;;;;;;;;5090438;28;20032;-80
2022/08/26 12:42:23;;;;;;;4.40;1.77;;;;;;;;;;5088086;28;20050;-78
2022/08/26 12:45:05;;;;;;;3.05;1.60;;;;;;;;;;5073384;28;20119;-77
2022/08/26 12:47:40;;;;;;;4.45;1.50;;;;;;;;;;5084101;28;20401;-78
2022/08/26 12:50:20;;;;;;;4.43;1.35;;;;;;;;;;5077986;28;20015;-78
2022/08/26 12:53:04;;;;;;;5.20;1.30;;;;;;;;;;5084526;28;20025;-80
2022/08/26 12:55:38;;;;;;;3.65;1.95;;;;;;;;;;5072213;28;20493;-79
2022/08/26 12:58:10;;;;;;;4.50;1.90;;;;;;;;;;5071093;28;20031;-82
2022/08/26 13:00:41;;;;;;;3.05;1.75;;;;;;;;;;5077315;28;20479;-80
2022/08/26 13:03:25;;;;;;;3.50;2.10;;;;;;;;;;5072859;28;20017;-78
2022/08/26 13:05:51;;;;;;;2.75;1.92;;;;;;;;;;5076014;28;20040;-80
2022/08/26 13:08:25;;;;;;;3.92;1.83;;;;;;;;;;5071987;28;20021;-80
2022/08/26 13:11:01;;;;;;;4.63;2.08;;;;;;;;;;5074505;28;20016;-81
2022/08/26 13:13:28;;;;;;;4.90;2.30;;;;;;;;;;5082818;28;20028;-81
2022/08/26 13:15:54;;;;;;;3.97;2.40;;;;;;;;;;5088473;28;20096;-78
2022/08/26 13:18:20;;;;;;;4.07;2.08;;;;;;;;;;5068620;28;20044;-83
2022/08/26 13:20:47;;;;;;;4.15;1.90;;;;;;;;;;5081978;28;20427;-80
2022/08/26 13:23:13;;;;;;;3.70;2.00;;;;;;;;;;5075115;28;20028;-79
2022/08/26 13:25:39;;;;;;;5.38;2.03;;;;;;;;;;5069344;28;20410;-79
2022/08/26 13:28:05;;;;;;;4.10;2.20;;;;;;;;;;5088372;28;20431;-78
2022/08/26 13:30:31;;;;;;;4.55;2.17;;;;;;;;;;5086530;28;20118;-76
2022/08/26 13:32:59;;;;;;;5.35;2.15;;;;;;;;;;5089325;28;20020;-79
2022/08/26 13:35:25;;;;;;;3.67;2.13;;;;;;;;;;5090403;28;20043;-77
2022/08/26 13:37:51;;;;;;;3.38;1.70;;;;;;;;;;5091045;28;20108;-77
2022/08/26 13:40:18;;;;;;;4.55;2.17;;;;;;;;;;5087650;28;20136;-76
2022/08/26 13:42:44;;;;;;;3.70;1.70;;;;;;;;;;5088066;28;20549;-79
2022/08/26 13:45:11;;;;;;;4.55;2.03;;;;;;;;;;5085264;28;20124;-77
2022/08/26 13:47:37;;;;;;;3.47;1.52;;;;;;;;;;5088066;28;20506;-76
2022/08/26 13:50:04;;;;;;;4.38;1.80;;;;;;;;;;5087955;28;20070;-78
2022/08/26 13:52:30;;;;;;;4.30;1.60;;;;;;;;;;5089479;28;20452;-79
2022/08/26 13:54:56;;;;;;;5.25;1.75;;;;;;;;;;5090799;28;20028;-83
2022/08/26 13:57:23;;;;;;;2.97;1.50;;;;;;;;;;5089596;28;20154;-78
2022/08/26 13:59:50;;;;;;;2.63;1.50;;;;;;;;;;5083042;28;20084;-79
2022/08/26 14:02:16;;;;;;;2.75;1.50;;;;;;;;;;5086222;28;20031;-80
2022/08/26 14:04:42;;;;;;;4.32;1.55;;;;;;;;;;5072562;28;20024;-77
2022/08/26 14:07:08;;;;;;;2.08;1.40;;;;;;;;;;5074095;28;20224;-77
2022/08/26 14:09:34;;;;;;;2.83;1.50;;;;;;;;;;5077997;28;20020;-78
2022/08/26 14:12:00;;;;;;;2.72;1.50;;;;;;;;;;5083565;28;20032;-75
2022/08/26 14:14:26;;;;;;;3.60;1.80;;;;;;;;;;5075547;28;20029;-80
2022/08/26 14:16:52;;;;;;;4.63;1.88;;;;;;;;;;5074749;28;20077;-77
2022/08/26 14:19:18;;;;;;;4.53;1.85;;;;;;;;;;5090989;28;20447;-75
2022/08/26 14:21:45;;;;;;;5.57;2.08;;;;;;;;;;5094444;28;20099;-76
2022/08/26 14:24:11;;;;;;;4.40;1.90;;;;;;;;;;5094101;28;20466;-76
2022/08/26 14:26:37;;;;;;;2.97;1.67;;;;;;;;;;5092444;28;20047;-75
2022/08/26 14:29:04;;;;;;;3.70;1.80;;;;;;;;;;5093963;28;20035;-78
2022/08/26 14:31:31;;;;;;;3.35;1.83;;;;;;;;;;5078636;28;20032;-76
2022/08/26 14:33:59;;;;;;;4.68;1.75;;;;;;;;;;5092565;28;20030;-76
2022/08/26 14:36:28;;;;;;;4.00;1.80;;;;;;;;;;5081369;28;20028;-76
2022/08/26 14:38:55;;;;;;;3.85;1.90;;;;;;;;;;5071464;28;20036;-75
2022/08/26 14:41:23;;;;;;;4.05;2.15;;;;;;;;;;5092704;28;20107;-78
2022/08/26 14:43:50;;;;;;;3.45;1.90;;;;;;;;;;5091695;28;20028;-77
2022/08/26 14:46:17;;;;;;;4.00;1.80;;;;;;;;;;5093505;28;20024;-77
2022/08/26 14:48:43;;;;;;;4.70;1.83;;;;;;;;;;5091938;28;20051;-79
2022/08/26 14:51:09;;;;;;;3.53;1.90;;;;;;;;;;5092547;28;20330;-76